Time;durP1;ratioP1;P1;durP2;ratioP2;P2;SDS_P1;SDS_P2;PMS_P1;PMS_P2;Temp;Humidity;BMP_temperature;BMP_pressure;BME280_temperature;BME280_humidity;BME280_pressure;Samples;Min_cycle;Max_cycle;Signal;HPM_P1;HPM_P2
2021/10/29 00:00:48;;;;;;;47.80;25.55;;;7.40;57.60;;;;;;5081343;28;20048;-68
2021/10/29 00:03:17;;;;;;;41.13;24.05;;;7.40;57.50;;;;;;5079910;28;20072;-67
2021/10/29 00:05:47;;;;;;;43.28;24.23;;;7.40;57.50;;;;;;5080562;28;20052;-67
2021/10/29 00:08:17;;;;;;;41.72;23.77;;;7.40;58.00;;;;;;5089564;28;20051;-67
2021/10/29 00:10:47;;;;;;;38.13;22.90;;;7.40;57.80;;;;;;5083335;28;20087;-67
2021/10/29 00:13:17;;;;;;;40.72;23.80;;;7.40;58.10;;;;;;5079831;28;20488;-68
2021/10/29 00:15:48;;;;;;;39.10;22.67;;;7.30;57.70;;;;;;5080430;28;20056;-68
2021/10/29 00:18:20;;;;;;;40.03;22.55;;;7.20;57.00;;;;;;5080320;28;20043;-68
2021/10/29 00:20:48;;;;;;;40.33;23.73;;;7.00;56.50;;;;;;5083638;28;20122;-68
2021/10/29 00:23:17;;;;;;;40.40;21.92;;;7.00;56.80;;;;;;5079311;28;20063;-68
2021/10/29 00:25:47;;;;;;;39.08;23.10;;;6.90;56.80;;;;;;5075680;28;20059;-67
2021/10/29 00:28:14;;;;;;;42.25;23.55;;;6.90;56.70;;;;;;5086600;28;20136;-68
2021/10/29 00:30:47;;;;;;;40.45;22.08;;;6.90;56.80;;;;;;5083916;28;20039;-68
2021/10/29 00:33:16;;;;;;;41.78;21.80;;;6.80;56.60;;;;;;5077702;28;20113;-68
2021/10/29 00:35:48;;;;;;;39.88;24.13;;;6.70;56.90;;;;;;5075120;28;20072;-68
2021/10/29 00:38:16;;;;;;;41.13;23.15;;;6.80;57.20;;;;;;5084276;28;20131;-68
2021/10/29 00:40:44;;;;;;;36.70;22.35;;;6.70;57.00;;;;;;5082692;28;20054;-68
2021/10/29 00:43:13;;;;;;;44.08;24.95;;;6.80;57.50;;;;;;5078963;28;20517;-68
2021/10/29 00:45:42;;;;;;;41.75;24.63;;;6.80;57.80;;;;;;5077618;28;20059;-68
2021/10/29 00:48:16;;;;;;;39.90;24.13;;;6.80;57.80;;;;;;5085141;28;20044;-68
2021/10/29 00:50:44;;;;;;;45.47;25.05;;;6.80;57.80;;;;;;5040565;28;20072;-68
2021/10/29 00:53:12;;;;;;;45.28;24.77;;;6.80;58.20;;;;;;5071882;28;20135;-68
2021/10/29 00:55:41;;;;;;;38.90;24.33;;;6.90;59.10;;;;;;5076420;28;20399;-68
2021/10/29 00:58:09;;;;;;;48.40;25.45;;;6.90;58.90;;;;;;5086572;28;20445;-68
2021/10/29 01:00:40;;;;;;;42.58;24.67;;;6.90;58.70;;;;;;5081723;28;20128;-68
2021/10/29 01:03:09;;;;;;;48.33;25.65;;;6.80;58.60;;;;;;5076885;28;20048;-68
2021/10/29 01:05:37;;;;;;;42.17;24.27;;;6.80;58.80;;;;;;5076302;28;20048;-68
2021/10/29 01:08:07;;;;;;;44.40;25.40;;;6.80;58.90;;;;;;5082402;28;20056;-68
2021/10/29 01:10:35;;;;;;;47.35;25.40;;;6.90;59.30;;;;;;5080839;28;20052;-68
2021/10/29 01:13:06;;;;;;;43.80;25.08;;;6.90;59.60;;;;;;5080136;28;20043;-68
2021/10/29 01:15:36;;;;;;;46.88;25.38;;;6.90;59.20;;;;;;5082975;28;20117;-68
2021/10/29 01:18:11;;;;;;;44.00;25.95;;;6.80;59.30;;;;;;5081941;28;20632;-68
2021/10/29 01:20:43;;;;;;;51.30;26.42;;;6.80;59.20;;;;;;5084945;28;20039;-68
2021/10/29 01:23:11;;;;;;;45.88;26.45;;;6.90;59.60;;;;;;5081412;28;20132;-68
2021/10/29 01:25:39;;;;;;;49.15;25.58;;;6.90;59.70;;;;;;5082170;28;20052;-68
2021/10/29 01:28:11;;;;;;;50.15;25.88;;;6.90;59.70;;;;;;5081701;28;20036;-68
2021/10/29 01:30:39;;;;;;;45.30;25.33;;;6.80;59.60;;;;;;5082102;28;20075;-68
2021/10/29 01:33:07;;;;;;;45.83;26.38;;;6.80;59.50;;;;;;5074923;28;20123;-68
2021/10/29 01:35:35;;;;;;;41.22;25.10;;;6.80;59.40;;;;;;5084859;28;20044;-68
2021/10/29 01:38:05;;;;;;;42.63;24.25;;;6.70;59.50;;;;;;5083302;28;20051;-68
2021/10/29 01:40:38;;;;;;;43.47;25.00;;;6.60;59.40;;;;;;5083887;28;20138;-68
2021/10/29 01:43:06;;;;;;;42.60;24.13;;;6.60;59.50;;;;;;5075675;28;20047;-68
2021/10/29 01:45:34;;;;;;;44.20;24.88;;;6.60;59.50;;;;;;5074258;28;20050;-67
2021/10/29 01:48:02;;;;;;;42.80;24.80;;;6.60;59.50;;;;;;5086509;28;20052;-68
2021/10/29 01:50:32;;;;;;;39.85;23.95;;;6.50;59.30;;;;;;5083855;28;20433;-68
2021/10/29 01:53:01;;;;;;;42.55;24.15;;;6.50;59.40;;;;;;5081402;28;20036;-68
2021/10/29 01:55:31;;;;;;;45.13;24.92;;;6.40;59.30;;;;;;5080599;28;20133;-68
2021/10/29 01:57:59;;;;;;;39.92;24.42;;;6.40;59.20;;;;;;5079935;28;20051;-69
2021/10/29 02:00:30;;;;;;;40.95;23.08;;;6.30;59.10;;;;;;5085502;28;20078;-68
2021/10/29 02:02:58;;;;;;;42.83;22.45;;;6.20;58.60;;;;;;5076021;28;20053;-68
2021/10/29 02:05:29;;;;;;;37.42;22.58;;;6.10;58.50;;;;;;5079927;28;20044;-68
2021/10/29 02:07:57;;;;;;;46.20;23.33;;;6.00;58.30;;;;;;5079463;28;20064;-69
2021/10/29 02:10:28;;;;;;;41.50;23.02;;;6.00;58.50;;;;;;5082493;28;20295;-69
2021/10/29 02:12:59;;;;;;;34.08;20.33;;;5.90;58.20;;;;;;5077605;28;20040;-68
2021/10/29 02:15:27;;;;;;;33.63;19.77;;;5.70;58.00;;;;;;5083927;28;20083;-69
2021/10/29 02:18:01;;;;;;;36.55;20.48;;;5.60;57.50;;;;;;5076638;28;20040;-68
2021/10/29 02:20:33;;;;;;;31.48;18.80;;;5.60;57.60;;;;;;5085194;28;20047;-69
2021/10/29 02:23:01;;;;;;;31.30;19.25;;;5.50;57.10;;;;;;5074890;28;20407;-67
2021/10/29 02:25:33;;;;;;;33.97;19.15;;;5.40;57.10;;;;;;5078037;28;20043;-67
2021/10/29 02:28:07;;;;;;;33.88;19.10;;;5.40;57.00;;;;;;5082722;28;20380;-67
2021/10/29 02:30:38;;;;;;;34.72;18.88;;;5.20;56.20;;;;;;5082972;28;20044;-67
2021/10/29 02:33:06;;;;;;;31.38;18.05;;;5.00;55.80;;;;;;5079517;28;20044;-68
2021/10/29 02:35:37;;;;;;;30.83;20.23;;;4.90;56.00;;;;;;5073704;28;20093;-67
2021/10/29 02:38:10;;;;;;;26.83;17.30;;;5.00;55.80;;;;;;5080343;28;20046;-68
2021/10/29 02:40:39;;;;;;;35.03;18.70;;;5.10;56.00;;;;;;5086730;28;20032;-68
2021/10/29 02:43:09;;;;;;;29.05;17.30;;;5.00;55.10;;;;;;5076798;28;20495;-68
2021/10/29 02:45:37;;;;;;;31.13;18.35;;;5.00;54.90;;;;;;5079142;28;20093;-68
2021/10/29 02:48:09;;;;;;;30.73;17.92;;;4.90;54.40;;;;;;5080079;28;20059;-68
2021/10/29 02:50:37;;;;;;;32.13;17.98;;;4.80;54.50;;;;;;5065399;28;20055;-68
2021/10/29 02:53:08;;;;;;;26.02;16.85;;;4.80;55.00;;;;;;5075169;28;20537;-68
2021/10/29 02:55:39;;;;;;;29.73;17.77;;;4.80;55.10;;;;;;5084444;28;20066;-68
2021/10/29 02:58:09;;;;;;;31.00;17.42;;;4.80;54.70;;;;;;5081281;28;20592;-68
2021/10/29 03:00:37;;;;;;;25.83;16.33;;;4.80;55.30;;;;;;5063046;28;20058;-68
2021/10/29 03:03:09;;;;;;;28.65;16.92;;;4.80;54.80;;;;;;5060565;28;20040;-68
2021/10/29 03:05:39;;;;;;;27.65;16.67;;;4.80;55.20;;;;;;5083743;28;20055;-68
2021/10/29 03:08:09;;;;;;;26.30;17.17;;;4.80;55.20;;;;;;5082643;28;20139;-68
2021/10/29 03:10:37;;;;;;;27.25;16.08;;;4.70;54.40;;;;;;5082976;28;20083;-68
2021/10/29 03:13:10;;;;;;;28.10;17.23;;;4.70;54.50;;;;;;5077002;28;20552;-69
2021/10/29 03:15:38;;;;;;;27.88;16.58;;;4.70;54.80;;;;;;5079202;28;20072;-69
2021/10/29 03:18:06;;;;;;;34.17;19.02;;;4.80;54.90;;;;;;5083177;28;20039;-68
2021/10/29 03:20:35;;;;;;;40.28;22.88;;;4.90;55.70;;;;;;5080633;28;20056;-69
2021/10/29 03:23:03;;;;;;;42.97;22.95;;;5.30;57.00;;;;;;5075443;28;20083;-69
2021/10/29 03:25:31;;;;;;;39.08;23.63;;;5.40;57.00;;;;;;5091389;28;20094;-69
2021/10/29 03:28:01;;;;;;;44.30;24.15;;;5.50;57.80;;;;;;5082691;28;20067;-69
2021/10/29 03:30:30;;;;;;;41.45;24.13;;;5.60;57.90;;;;;;5083311;28;20051;-69
2021/10/29 03:33:02;;;;;;;39.50;23.88;;;5.60;58.10;;;;;;5079351;28;20044;-69
2021/10/29 03:35:31;;;;;;;45.47;23.35;;;5.60;58.60;;;;;;5085659;28;20135;-67
2021/10/29 03:40:54;;;;;;;42.80;23.60;;;5.70;58.30;;;;;;5089516;28;20052;-67
2021/10/29 03:43:27;;;;;;;38.70;23.23;;;5.70;58.30;;;;;;5079516;28;20055;-68
2021/10/29 03:46:00;;;;;;;38.88;22.70;;;5.80;58.50;;;;;;5082829;28;20139;-67
2021/10/29 03:48:37;;;;;;;41.80;22.40;;;5.70;58.10;;;;;;5083146;28;20053;-68
2021/10/29 03:51:11;;;;;;;45.13;23.50;;;5.70;58.30;;;;;;5084562;28;20039;-68
2021/10/29 03:53:44;;;;;;;42.50;23.30;;;5.70;58.30;;;;;;5061211;28;20044;-68
2021/10/29 03:56:19;;;;;;;40.33;22.25;;;5.80;58.70;;;;;;5080037;28;20055;-68
2021/10/29 03:58:49;;;;;;;39.47;22.25;;;5.80;58.70;;;;;;5083611;28;20038;-68
2021/10/29 04:01:19;;;;;;;40.47;23.02;;;5.80;58.80;;;;;;5088274;28;20101;-68
2021/10/29 04:03:54;;;;;;;42.10;23.25;;;5.80;58.70;;;;;;5081210;28;20511;-68
2021/10/29 04:06:22;;;;;;;39.95;23.20;;;5.80;58.70;;;;;;5082592;28;20075;-68
2021/10/29 04:08:50;;;;;;;33.60;20.27;;;5.70;59.20;;;;;;5085492;28;20070;-68
2021/10/29 04:11:21;;;;;;;36.83;20.88;;;5.40;57.30;;;;;;5084015;28;20112;-68
2021/10/29 04:13:50;;;;;;;36.78;21.42;;;5.30;57.30;;;;;;5078138;28;20048;-68
2021/10/29 04:16:20;;;;;;;38.90;21.08;;;5.40;58.40;;;;;;5078203;28;20090;-68
2021/10/29 04:18:50;;;;;;;39.42;21.80;;;5.30;58.20;;;;;;5085694;28;20050;-68
2021/10/29 04:21:21;;;;;;;40.30;21.55;;;5.30;58.00;;;;;;5086310;28;20051;-68
2021/10/29 04:23:51;;;;;;;36.20;21.67;;;5.20;58.00;;;;;;5076528;28;20066;-68
2021/10/29 04:26:19;;;;;;;33.97;19.88;;;5.10;57.90;;;;;;5083489;28;20131;-68
2021/10/29 04:28:53;;;;;;;37.40;21.17;;;5.00;57.50;;;;;;5071905;28;20048;-68
2021/10/29 04:31:28;;;;;;;36.60;20.67;;;4.90;58.30;;;;;;5085367;28;20191;-68
2021/10/29 04:34:00;;;;;;;37.05;20.42;;;4.90;57.50;;;;;;5075413;28;20060;-68
2021/10/29 04:36:31;;;;;;;37.33;21.10;;;4.90;57.70;;;;;;5084711;28;20048;-68
2021/10/29 04:39:09;;;;;;;40.13;21.20;;;5.00;58.10;;;;;;5084066;28;20131;-68
2021/10/29 04:41:42;;;;;;;38.78;22.10;;;5.10;58.30;;;;;;5081248;28;20044;-68
2021/10/29 04:44:11;;;;;;;34.33;20.67;;;5.10;58.30;;;;;;5079463;28;20051;-68
2021/10/29 04:46:42;;;;;;;37.65;20.60;;;5.10;58.30;;;;;;5080052;28;20047;-68
2021/10/29 04:49:11;;;;;;;42.13;22.55;;;5.10;58.30;;;;;;5086278;28;20074;-68
2021/10/29 04:51:39;;;;;;;38.95;21.15;;;5.10;58.30;;;;;;5073260;28;20078;-68
2021/10/29 04:54:09;;;;;;;38.88;21.42;;;5.10;58.30;;;;;;5077556;28;20480;-68
2021/10/29 04:56:38;;;;;;;36.45;20.17;;;5.00;58.20;;;;;;5076084;28;20052;-68
2021/10/29 04:59:06;;;;;;;34.30;18.60;;;5.10;58.40;;;;;;5081590;28;20113;-68
2021/10/29 05:01:34;;;;;;;32.97;19.27;;;5.00;58.20;;;;;;5083219;28;20063;-68
2021/10/29 05:04:07;;;;;;;38.08;20.00;;;5.00;58.20;;;;;;5078755;28;21264;-67
2021/10/29 05:06:37;;;;;;;30.88;19.05;;;5.00;58.20;;;;;;5062390;28;20084;-69
2021/10/29 05:09:05;;;;;;;32.75;20.13;;;5.00;58.20;;;;;;5084238;28;20108;-67
2021/10/29 05:11:36;;;;;;;35.33;20.65;;;5.00;58.20;;;;;;5087367;28;20047;-69
2021/10/29 05:14:07;;;;;;;39.75;20.98;;;5.00;58.20;;;;;;5079935;28;20036;-66
2021/10/29 05:16:35;;;;;;;35.17;20.65;;;5.00;58.20;;;;;;5075821;28;20059;-68
2021/10/29 05:19:24;;;;;;;33.47;19.73;;;5.00;58.20;;;;;;5086351;28;20052;-68
2021/10/29 05:21:53;;;;;;;36.33;20.60;;;5.10;58.30;;;;;;5081732;28;20089;-68
2021/10/29 05:24:21;;;;;;;41.03;21.67;;;5.10;58.30;;;;;;5081932;28;20041;-68
2021/10/29 05:26:53;;;;;;;39.60;20.85;;;5.10;58.10;;;;;;5078091;28;20070;-67
2021/10/29 05:29:21;;;;;;;34.08;20.15;;;5.10;58.10;;;;;;5080997;28;20578;-67
2021/10/29 05:32:00;;;;;;;36.85;20.30;;;5.10;58.20;;;;;;5080691;28;20118;-67
2021/10/29 05:34:34;;;;;;;32.20;19.98;;;5.00;58.70;;;;;;5076055;28;20507;-68
2021/10/29 05:37:02;;;;;;;33.67;20.95;;;5.00;57.70;;;;;;5076414;28;20131;-68
2021/10/29 05:39:33;;;;;;;35.15;20.67;;;5.00;57.90;;;;;;5076306;28;20036;-68
2021/10/29 05:42:02;;;;;;;38.92;22.42;;;5.00;57.90;;;;;;5076157;28;20289;-67
2021/10/29 05:44:30;;;;;;;38.22;21.83;;;5.10;58.20;;;;;;5077154;28;20479;-68
2021/10/29 05:46:58;;;;;;;34.03;20.63;;;5.10;58.20;;;;;;5077342;28;20059;-68
2021/10/29 05:49:28;;;;;;;31.30;19.00;;;5.20;58.30;;;;;;5080401;28;20072;-68
2021/10/29 05:51:57;;;;;;;37.38;21.27;;;5.10;57.70;;;;;;5079601;28;20051;-68
2021/10/29 05:54:40;;;;;;;33.83;18.65;;;5.10;57.50;;;;;;5081454;28;20101;-68
2021/10/29 05:57:08;;;;;;;29.58;18.17;;;5.00;57.10;;;;;;5080954;28;20136;-69
2021/10/29 05:59:36;;;;;;;32.20;18.60;;;4.90;56.70;;;;;;5082981;28;20056;-69
2021/10/29 06:02:05;;;;;;;31.92;18.15;;;4.90;56.80;;;;;;5086960;28;20039;-68
2021/10/29 06:04:33;;;;;;;31.08;20.30;;;4.80;56.30;;;;;;5066708;28;20039;-68
2021/10/29 06:07:02;;;;;;;32.58;18.75;;;4.80;56.20;;;;;;5082378;28;20422;-67
2021/10/29 06:09:31;;;;;;;30.38;17.60;;;4.80;56.20;;;;;;5080530;28;20410;-67
2021/10/29 06:11:59;;;;;;;30.02;17.73;;;4.80;55.60;;;;;;5085149;28;20044;-68
2021/10/29 06:14:29;;;;;;;33.90;18.15;;;4.80;56.20;;;;;;5078880;28;20048;-68
2021/10/29 06:17:05;;;;;;;30.33;17.10;;;4.90;55.90;;;;;;5085235;28;20039;-67
2021/10/29 06:19:34;;;;;;;27.65;17.38;;;4.80;55.40;;;;;;5084995;28;20094;-68
2021/10/29 06:22:09;;;;;;;28.73;17.27;;;4.80;55.60;;;;;;5079236;28;20043;-68
2021/10/29 06:24:38;;;;;;;27.00;16.38;;;4.90;55.90;;;;;;5085733;28;20048;-67
2021/10/29 06:27:11;;;;;;;31.05;17.63;;;4.80;54.50;;;;;;5079444;28;20533;-68
2021/10/29 06:29:39;;;;;;;27.13;15.32;;;4.40;53.70;;;;;;5086113;28;20048;-68
2021/10/29 06:32:08;;;;;;;26.77;16.70;;;4.20;50.30;;;;;;5081875;28;20048;-67
2021/10/29 06:34:40;;;;;;;22.40;14.90;;;4.10;51.50;;;;;;5062511;28;20120;-67
2021/10/29 06:37:15;;;;;;;22.83;15.07;;;4.10;50.60;;;;;;5078889;28;20054;-68
2021/10/29 06:39:49;;;;;;;22.05;14.75;;;3.70;43.90;;;;;;5078481;28;20033;-68
2021/10/29 06:42:21;;;;;;;24.77;15.82;;;3.60;47.10;;;;;;5078761;28;20500;-68
2021/10/29 06:45:00;;;;;;;21.75;14.77;;;3.50;45.50;;;;;;5089287;28;20250;-68
2021/10/29 06:47:37;;;;;;;24.50;14.88;;;3.40;47.00;;;;;;5084458;28;20044;-68
2021/10/29 07:01:26;;;;;;;29.27;16.48;;;4.40;46.00;;;;;;5085334;28;20083;-68
2021/10/29 07:04:31;;;;;;;25.75;17.13;;;4.40;42.40;;;;;;5091778;28;20128;-68
2021/10/29 07:40:41;;;;;;;22.50;13.13;;;5.10;37.30;;;;;;5088271;28;20097;-69
2021/10/29 07:43:16;;;;;;;19.05;12.52;;;5.20;37.80;;;;;;5086833;28;20044;-67
2021/10/29 07:45:46;;;;;;;18.73;13.70;;;5.50;36.40;;;;;;5090215;28;20075;-68
2021/10/29 07:48:16;;;;;;;18.33;12.75;;;5.40;34.40;;;;;;5088125;28;20044;-68
2021/10/29 07:50:44;;;;;;;20.10;13.00;;;5.50;36.10;;;;;;5086676;28;20047;-68
2021/10/29 07:53:15;;;;;;;19.95;13.75;;;5.70;34.40;;;;;;5086334;28;20330;-67
2021/10/29 07:55:45;;;;;;;21.17;13.02;;;5.90;32.40;;;;;;5086036;28;20564;-68
2021/10/29 07:58:15;;;;;;;18.10;13.00;;;5.90;33.80;;;;;;5090762;28;20048;-68
2021/10/29 08:00:46;;;;;;;21.75;13.45;;;5.90;33.20;;;;;;5088924;28;20044;-67
2021/10/29 08:03:14;;;;;;;19.67;13.25;;;5.80;34.50;;;;;;5072026;28;20461;-68
2021/10/29 08:05:45;;;;;;;20.75;13.23;;;6.00;34.70;;;;;;5082435;28;20112;-67
2021/10/29 08:08:19;;;;;;;19.80;13.87;;;6.00;36.20;;;;;;5089940;28;20135;-67
2021/10/29 08:10:51;;;;;;;23.95;14.50;;;6.20;34.80;;;;;;5090032;28;20789;-68
2021/10/29 08:13:24;;;;;;;20.60;13.30;;;6.30;34.90;;;;;;5070245;28;20114;-68
2021/10/29 08:15:58;;;;;;;20.83;13.93;;;6.50;35.10;;;;;;5087850;28;20051;-67
2021/10/29 08:18:27;;;;;;;20.02;13.85;;;6.50;33.80;;;;;;5081635;28;20093;-67
2021/10/29 08:20:56;;;;;;;19.35;13.32;;;6.60;35.20;;;;;;5089241;28;20055;-68
2021/10/29 08:23:24;;;;;;;20.13;13.75;;;6.80;35.30;;;;;;5069314;28;20051;-67
2021/10/29 08:25:53;;;;;;;21.27;13.68;;;7.00;32.10;;;;;;5088798;28;20040;-68
2021/10/29 08:28:21;;;;;;;20.67;13.15;;;7.20;30.80;;;;;;5084421;28;20131;-67
2021/10/29 08:30:55;;;;;;;19.83;12.52;;;7.30;29.10;;;;;;5089599;28;20144;-67
2021/10/29 08:33:25;;;;;;;20.67;13.55;;;7.10;28.40;;;;;;5084408;28;20044;-67
2021/10/29 08:35:56;;;;;;;23.15;14.55;;;7.30;31.50;;;;;;5087365;28;20495;-67
2021/10/29 08:38:24;;;;;;;20.15;14.23;;;7.10;31.60;;;;;;5085302;28;20044;-67
2021/10/29 08:40:59;;;;;;;22.42;14.80;;;7.10;31.30;;;;;;5089569;28;20048;-68
2021/10/29 08:43:27;;;;;;;19.40;14.07;;;7.20;34.40;;;;;;5083880;28;20044;-69
2021/10/29 08:45:58;;;;;;;21.58;14.30;;;7.60;30.80;;;;;;5081804;28;20036;-68
2021/10/29 08:48:27;;;;;;;20.48;13.15;;;7.80;27.30;;;;;;5090359;28;20048;-68
2021/10/29 08:50:57;;;;;;;19.60;12.90;;;7.80;25.90;;;;;;5089116;28;20119;-66
2021/10/29 08:53:26;;;;;;;17.83;13.20;;;7.90;26.60;;;;;;5084915;28;20123;-67
2021/10/29 08:56:01;;;;;;;19.30;12.50;;;7.90;25.50;;;;;;5085308;28;20127;-68
2021/10/29 08:58:36;;;;;;;20.48;14.30;;;8.00;25.90;;;;;;5089528;28;20154;-68
2021/10/29 09:01:09;;;;;;;18.75;12.82;;;8.00;28.80;;;;;;5071407;28;20131;-68
2021/10/29 09:03:46;;;;;;;21.10;14.02;;;8.00;27.50;;;;;;5085550;28;20052;-68
2021/10/29 09:06:30;;;;;;;20.08;13.68;;;8.00;26.40;;;;;;5083143;28;20457;-68
2021/10/29 09:09:07;;;;;;;20.05;14.57;;;8.30;26.80;;;;;;5084523;28;20094;-68
2021/10/29 09:11:55;;;;;;;23.30;14.07;;;8.40;26.60;;;;;;5087835;28;20051;-68
2021/10/29 09:31:33;;;;;;;17.73;13.20;;;9.20;22.30;;;;;;5048718;28;20106;-68
2021/10/29 09:34:06;;;;;;;20.50;13.90;;;9.40;22.10;;;;;;5064658;28;20087;-68
2021/10/29 09:36:39;;;;;;;18.58;14.05;;;9.40;21.70;;;;;;5085938;28;20040;-68
2021/10/29 09:39:09;;;;;;;19.00;14.02;;;9.60;20.50;;;;;;5085847;28;20040;-68
2021/10/29 09:41:41;;;;;;;24.27;14.00;;;9.80;18.90;;;;;;5085727;28;20105;-68
2021/10/29 09:44:14;;;;;;;19.05;12.60;;;10.00;18.20;;;;;;5083885;28;20055;-68
2021/10/29 09:46:55;;;;;;;18.88;12.57;;;10.20;17.30;;;;;;5080476;28;20520;-68
2021/10/29 09:49:29;;;;;;;16.52;12.30;;;10.30;15.20;;;;;;5087567;28;20048;-68
2021/10/29 09:52:32;;;;;;;19.38;13.32;;;10.40;15.30;;;;;;5091494;28;20861;-68
2021/10/29 09:55:15;;;;;;;18.70;12.45;;;10.20;14.50;;;;;;5083197;28;20131;-68
2021/10/29 09:57:50;;;;;;;18.77;12.80;;;10.00;17.00;;;;;;5086748;28;20048;-68
2021/10/29 10:00:21;;;;;;;21.20;13.38;;;10.30;16.20;;;;;;5084152;28;20405;-68
2021/10/29 10:02:49;;;;;;;17.42;12.52;;;10.50;15.70;;;;;;5088461;28;20043;-68
2021/10/29 10:05:22;;;;;;;18.52;12.75;;;10.50;13.70;;;;;;5080670;28;20071;-67
2021/10/29 10:07:50;;;;;;;20.38;13.90;;;10.80;14.20;;;;;;5084952;28;20423;-68
2021/10/29 10:10:19;;;;;;;19.58;12.80;;;11.00;11.10;;;;;;5084042;28;20482;-68
2021/10/29 10:12:50;;;;;;;16.45;12.18;;;11.30;10.50;;;;;;5087524;28;20062;-67
2021/10/29 10:15:19;;;;;;;16.83;11.93;;;11.40;9.30;;;;;;5085102;28;20063;-68
2021/10/29 10:17:51;;;;;;;19.80;11.80;;;11.50;7.80;;;;;;5086337;28;20044;-68
2021/10/29 10:20:25;;;;;;;17.60;12.90;;;11.50;8.60;;;;;;5085671;28;20135;-68
2021/10/29 10:22:56;;;;;;;18.70;11.75;;;11.50;8.80;;;;;;5086889;28;20040;-67
2021/10/29 10:25:41;;;;;;;18.02;12.73;;;11.50;8.70;;;;;;5086150;28;20054;-69
2021/10/29 10:40:44;;;;;;;19.85;13.40;;;12.00;6.90;;;;;;5091814;28;20071;-68
2021/10/29 10:43:34;;;;;;;19.10;12.35;;;12.10;6.20;;;;;;5087406;28;20564;-67
2021/10/29 10:46:12;;;;;;;17.70;11.52;;;12.20;5.50;;;;;;5090821;28;20123;-68
2021/10/29 10:48:47;;;;;;;17.40;11.38;;;12.40;5.00;;;;;;5092835;28;20087;-67
2021/10/29 10:54:32;;;;;;;16.75;13.48;;;12.00;7.70;;;;;;5081889;28;20403;-70
2021/10/29 10:57:21;;;;;;;21.85;15.00;;;11.90;7.90;;;;;;5089013;28;20055;-67
2021/10/29 10:59:58;;;;;;;19.45;14.35;;;12.10;7.60;;;;;;5086746;28;20040;-68
2021/10/29 11:05:35;;;;;;;23.05;14.65;;;12.40;7.10;;;;;;5091141;28;20044;-67
2021/10/29 11:11:15;;;;;;;19.88;14.50;;;12.70;5.70;;;;;;5089393;28;20058;-70
2021/10/29 11:13:53;;;;;;;18.20;13.40;;;12.80;4.70;;;;;;5091299;28;20056;-68
2021/10/29 11:16:28;;;;;;;19.25;13.30;;;12.90;3.80;;;;;;5083131;28;20074;-67
2021/10/29 11:19:03;;;;;;;16.60;13.57;;;13.00;3.80;;;;;;5091269;28;20056;-70
2021/10/29 11:21:35;;;;;;;18.92;14.35;;;13.10;3.80;;;;;;5087652;28;20123;-67
2021/10/29 11:24:08;;;;;;;19.00;14.27;;;13.00;3.60;;;;;;5090371;28;20130;-68
2021/10/29 11:26:42;;;;;;;21.20;14.98;;;12.70;3.60;;;;;;5084920;28;20556;-68
2021/10/29 11:29:11;;;;;;;21.95;15.48;;;12.90;4.00;;;;;;5089346;28;20089;-68
2021/10/29 11:31:43;;;;;;;19.30;14.30;;;13.00;4.00;;;;;;5090284;28;20040;-67
2021/10/29 11:34:14;;;;;;;20.52;14.57;;;13.10;3.10;;;;;;5090920;28;20044;-68
2021/10/29 11:36:46;;;;;;;22.48;14.07;;;13.10;2.40;;;;;;5082821;28;20407;-68
2021/10/29 11:39:21;;;;;;;19.25;14.15;;;13.10;2.40;;;;;;5088290;28;20043;-68
2021/10/29 11:41:53;;;;;;;20.17;15.52;;;13.30;1.90;;;;;;5088448;28;20098;-68
2021/10/29 11:44:24;;;;;;;22.77;15.57;;;13.40;2.00;;;;;;5092823;28;20055;-67
2021/10/29 11:46:56;;;;;;;22.35;14.50;;;13.40;2.10;;;;;;5084051;28;20053;-67
2021/10/29 11:49:27;;;;;;;21.70;15.55;;;13.40;2.00;;;;;;5086070;28;20049;-68
2021/10/29 11:51:58;;;;;;;18.30;14.60;;;13.50;2.00;;;;;;5084915;28;20550;-68
2021/10/29 11:54:31;;;;;;;19.98;15.38;;;13.50;1.40;;;;;;5084023;28;20531;-67
2021/10/29 11:57:21;;;;;;;20.25;15.55;;;13.50;1.60;;;;;;5084709;28;20055;-67
2021/10/29 12:00:15;;;;;;;18.42;14.40;;;13.40;2.00;;;;;;5091280;28;20052;-67
2021/10/29 12:08:36;;;;;;;20.40;14.00;;;13.50;1.90;;;;;;5012271;28;20048;-68
2021/10/29 12:11:06;;;;;;;18.70;13.88;;;13.70;1.70;;;;;;5054232;28;20119;-68
2021/10/29 12:13:39;;;;;;;20.73;15.27;;;13.80;1.00;;;;;;5093028;28;20487;-68
2021/10/29 12:16:16;;;;;;;18.20;13.20;;;14.00;1.00;;;;;;5089832;28;20077;-69
2021/10/29 12:18:57;;;;;;;18.25;12.68;;;14.20;1.00;;;;;;5084097;28;20141;-68
2021/10/29 12:21:30;;;;;;;18.40;12.00;;;14.30;1.00;;;;;;5084129;28;20119;-69
2021/10/29 12:24:02;;;;;;;17.17;11.85;;;14.40;1.00;;;;;;5087999;28;20040;-67
2021/10/29 12:26:39;;;;;;;17.27;11.20;;;14.50;1.00;;;;;;5072157;28;20043;-69
2021/10/29 12:29:14;;;;;;;16.65;11.77;;;14.50;1.00;;;;;;5088453;28;20041;-69
2021/10/29 12:32:22;;;;;;;17.08;11.18;;;14.40;1.00;;;;;;5069756;28;20052;-68
2021/10/29 12:37:56;;;;;;;16.10;11.23;;;14.40;1.00;;;;;;5082724;28;20127;-67
2021/10/29 12:52:16;;;;;;;12.32;10.07;;;14.90;1.00;;;;;;5085627;28;20040;-69
2021/10/29 13:03:12;;;;;;;11.93;8.77;;;14.90;1.00;;;;;;5082738;28;20120;-68
2021/10/29 13:05:53;;;;;;;13.50;8.75;;;14.80;1.00;;;;;;5086287;28;20090;-69
2021/10/29 13:08:24;;;;;;;15.40;8.77;;;15.00;1.00;;;;;;5084986;28;20052;-68
2021/10/29 13:10:57;;;;;;;11.02;8.18;;;15.10;1.00;;;;;;5087651;28;20313;-67
2021/10/29 13:13:28;;;;;;;12.55;8.32;;;15.00;1.00;;;;;;5089298;28;20062;-69
2021/10/29 13:16:02;;;;;;;11.48;8.85;;;15.10;1.00;;;;;;5086294;28;20058;-68
2021/10/29 13:18:40;;;;;;;11.18;7.90;;;15.20;1.00;;;;;;5083885;28;20062;-69
2021/10/29 13:27:21;;;;;;;11.15;8.10;;;15.10;1.00;;;;;;5064200;28;20040;-68
2021/10/29 13:35:46;;;;;;;14.27;9.20;;;15.30;1.00;;;;;;5081758;28;20146;-68
2021/10/29 13:50:13;;;;;;;15.20;9.35;;;15.40;1.00;;;;;;5082763;28;20044;-68
2021/10/29 13:55:29;;;;;;;9.60;8.05;;;15.30;1.00;;;;;;5074443;28;20044;-68
2021/10/29 13:58:28;;;;;;;14.00;8.75;;;15.40;1.00;;;;;;5086817;28;20078;-68
2021/10/29 14:29:29;;;;;;;10.50;7.20;;;15.20;1.00;;;;;;5050208;28;20036;-68
2021/10/29 14:32:03;;;;;;;11.30;7.15;;;15.10;1.00;;;;;;5119019;27;20051;-68
2021/10/29 14:34:36;;;;;;;10.68;7.20;;;15.00;1.00;;;;;;5108243;27;20044;-67
2021/10/29 14:37:14;;;;;;;10.30;7.70;;;15.10;1.00;;;;;;5096538;28;20499;-68
2021/10/29 14:39:49;;;;;;;10.50;6.38;;;15.10;1.00;;;;;;5125019;27;20070;-69
2021/10/29 14:42:27;;;;;;;12.82;6.68;;;14.90;1.00;;;;;;5115496;27;20050;-68
2021/10/29 14:45:00;;;;;;;9.27;6.40;;;15.00;1.00;;;;;;5117817;27;20058;-68
2021/10/29 14:47:37;;;;;;;9.95;6.45;;;15.00;1.00;;;;;;5120630;27;20074;-68
2021/10/29 14:50:20;;;;;;;7.32;5.40;;;14.80;1.00;;;;;;5103761;27;20506;-69
2021/10/29 14:53:27;;;;;;;10.95;5.47;;;14.80;1.00;;;;;;5116168;27;20046;-68
2021/10/29 15:04:59;;;;;;;7.80;5.47;;;14.80;1.00;;;;;;5097931;27;20126;-68
2021/10/29 15:24:35;;;;;;;8.15;5.05;;;14.70;1.00;;;;;;5110457;27;20234;-68
2021/10/29 15:27:23;;;;;;;10.95;5.40;;;14.60;1.00;;;;;;5100536;27;20059;-68
2021/10/29 15:29:56;;;;;;;7.28;4.95;;;14.50;1.00;;;;;;5111186;27;20044;-68
2021/10/29 15:32:45;;;;;;;8.38;5.63;;;14.30;1.00;;;;;;5104654;27;20151;-67
2021/10/29 15:41:14;;;;;;;10.02;6.60;;;14.10;1.00;;;;;;5104383;27;20115;-69
2021/10/29 15:44:04;;;;;;;10.38;6.53;;;14.00;1.00;;;;;;5083983;27;20522;-68
2021/10/29 15:46:42;;;;;;;10.23;6.97;;;14.00;1.00;;;;;;5094695;27;20050;-68
2021/10/29 15:49:36;;;;;;;10.52;6.72;;;13.90;1.00;;;;;;5098757;27;20036;-69
2021/10/29 15:52:11;;;;;;;11.02;7.70;;;13.90;1.00;;;;;;5098597;28;20568;-68
2021/10/29 15:54:49;;;;;;;10.70;7.50;;;13.70;1.00;;;;;;5099359;27;20495;-69
2021/10/29 15:57:24;;;;;;;9.68;6.50;;;13.60;1.00;;;;;;5081299;28;20050;-68
2021/10/29 16:00:01;;;;;;;10.18;6.28;;;13.50;1.00;;;;;;5096610;27;20035;-68
2021/10/29 16:02:41;;;;;;;9.38;6.57;;;13.50;1.00;;;;;;5095499;27;20040;-66
2021/10/29 16:19:17;;;;;;;14.05;8.70;;;12.70;1.00;;;;;;5064913;27;20113;-68
2021/10/29 16:21:51;;;;;;;10.73;6.63;;;12.50;1.00;;;;;;5093411;27;20079;-68
2021/10/29 16:24:19;;;;;;;13.80;7.78;;;12.40;1.00;;;;;;5100136;28;21467;-68
2021/10/29 16:26:49;;;;;;;15.77;8.95;;;12.50;1.00;;;;;;5097821;27;20056;-68
2021/10/29 16:29:22;;;;;;;13.85;8.65;;;12.50;1.00;;;;;;5077716;28;20130;-69
2021/10/29 16:32:00;;;;;;;;;;;12.40;1.00;;;;;;5076096;28;20047;-67
2021/10/29 16:34:30;;;;;;;10.93;7.05;;;12.20;1.00;;;;;;5084148;28;20019;-69
2021/10/29 16:37:03;;;;;;;16.20;8.35;;;12.10;1.00;;;;;;5059756;28;20047;-68
2021/10/29 16:39:34;;;;;;;11.88;7.55;;;12.00;1.00;;;;;;5083444;28;20517;-68
2021/10/29 16:42:04;;;;;;;14.80;8.80;;;11.80;1.00;;;;;;5075912;28;20181;-68